sensor_id;sensor_type;location;lat;lon;timestamp;pressure;altitude;pressure_sealevel;temperature;humidity
66887;BME280;67239;51.680;5.976;2023-04-28T00:02:02;101244.28;;;9.04;56.05
66887;BME280;67239;51.680;5.976;2023-04-28T00:04:29;101233.19;;;8.86;57.12
66887;BME280;67239;51.680;5.976;2023-04-28T00:06:57;101232.53;;;8.72;57.99
66887;BME280;67239;51.680;5.976;2023-04-28T00:09:24;101229.22;;;8.60;58.88
66887;BME280;67239;51.680;5.976;2023-04-28T00:11:51;101213.53;;;8.54;59.49
66887;BME280;67239;51.680;5.976;2023-04-28T00:14:18;101207.44;;;8.52;60.26
66887;BME280;67239;51.680;5.976;2023-04-28T00:16:45;101212.66;;;8.55;60.32
66887;BME280;67239;51.680;5.976;2023-04-28T00:19:12;101200.28;;;8.60;60.26
66887;BME280;67239;51.680;5.976;2023-04-28T00:21:39;101195.03;;;8.62;60.95
66887;BME280;67239;51.680;5.976;2023-04-28T00:24:06;101207.25;;;8.64;61.02
66887;BME280;67239;51.680;5.976;2023-04-28T00:26:33;101198.59;;;8.58;61.12
66887;BME280;67239;51.680;5.976;2023-04-28T00:29:00;101207.50;;;8.46;61.22
66887;BME280;67239;51.680;5.976;2023-04-28T00:31:27;101193.63;;;8.36;61.81
66887;BME280;67239;51.680;5.976;2023-04-28T00:33:55;101198.13;;;8.29;62.08
66887;BME280;67239;51.680;5.976;2023-04-28T00:36:22;101192.00;;;8.29;62.34
66887;BME280;67239;51.680;5.976;2023-04-28T00:38:48;101195.41;;;8.35;62.55
66887;BME280;67239;51.680;5.976;2023-04-28T00:41:16;101194.50;;;8.38;62.56
66887;BME280;67239;51.680;5.976;2023-04-28T00:43:46;101188.28;;;8.44;62.09
66887;BME280;67239;51.680;5.976;2023-04-28T00:46:23;101182.97;;;8.45;62.34
66887;BME280;67239;51.680;5.976;2023-04-28T00:48:55;101172.59;;;8.39;62.26
66887;BME280;67239;51.680;5.976;2023-04-28T00:51:23;101174.50;;;8.28;62.96
66887;BME280;67239;51.680;5.976;2023-04-28T00:53:50;101177.25;;;8.21;63.37
66887;BME280;67239;51.680;5.976;2023-04-28T00:56:17;101174.63;;;8.21;64.06
66887;BME280;67239;51.680;5.976;2023-04-28T00:58:45;101180.72;;;8.22;64.17
66887;BME280;67239;51.680;5.976;2023-04-28T01:01:12;101173.72;;;8.22;64.28
66887;BME280;67239;51.680;5.976;2023-04-28T01:03:39;101178.91;;;8.27;64.57
66887;BME280;67239;51.680;5.976;2023-04-28T01:06:08;101176.13;;;8.35;64.96
66887;BME280;67239;51.680;5.976;2023-04-28T01:08:37;101168.19;;;8.41;64.50
66887;BME280;67239;51.680;5.976;2023-04-28T01:11:11;101165.47;;;8.46;64.68
66887;BME280;67239;51.680;5.976;2023-04-28T01:13:59;101155.84;;;8.48;64.60
66887;BME280;67239;51.680;5.976;2023-04-28T01:16:30;101150.59;;;8.45;64.50
66887;BME280;67239;51.680;5.976;2023-04-28T01:18:59;101163.78;;;8.42;64.70
66887;BME280;67239;51.680;5.976;2023-04-28T01:21:29;101162.00;;;8.44;65.48
66887;BME280;67239;51.680;5.976;2023-04-28T01:24:04;101153.25;;;8.43;65.58
66887;BME280;67239;51.680;5.976;2023-04-28T01:26:32;101148.91;;;8.42;65.36
66887;BME280;67239;51.680;5.976;2023-04-28T01:29:00;101150.72;;;8.38;65.52
66887;BME280;67239;51.680;5.976;2023-04-28T01:31:27;101148.09;;;8.37;65.97
66887;BME280;67239;51.680;5.976;2023-04-28T01:33:57;101146.34;;;8.36;66.39
66887;BME280;67239;51.680;5.976;2023-04-28T01:36:24;101141.09;;;8.36;66.80
66887;BME280;67239;51.680;5.976;2023-04-28T01:38:53;101134.94;;;8.37;67.01
66887;BME280;67239;51.680;5.976;2023-04-28T01:41:20;101130.63;;;8.34;67.17
66887;BME280;67239;51.680;5.976;2023-04-28T01:43:48;101113.09;;;8.35;67.52
66887;BME280;67239;51.680;5.976;2023-04-28T01:46:15;101120.13;;;8.34;67.14
66887;BME280;67239;51.680;5.976;2023-04-28T01:48:42;101114.94;;;8.30;67.58
66887;BME280;67239;51.680;5.976;2023-04-28T01:51:09;101109.72;;;8.27;67.65
66887;BME280;67239;51.680;5.976;2023-04-28T01:53:37;101112.44;;;8.23;67.85
66887;BME280;67239;51.680;5.976;2023-04-28T01:56:04;101116.84;;;8.21;68.03
66887;BME280;67239;51.680;5.976;2023-04-28T01:58:33;101121.22;;;8.19;68.29
66887;BME280;67239;51.680;5.976;2023-04-28T02:01:00;101124.72;;;8.20;68.69
66887;BME280;67239;51.680;5.976;2023-04-28T02:03:29;101119.56;;;8.14;68.89
66887;BME280;67239;51.680;5.976;2023-04-28T02:05:57;101114.34;;;8.11;69.63
66887;BME280;67239;51.680;5.976;2023-04-28T02:08:24;101108.28;;;8.07;70.01
66887;BME280;67239;51.680;5.976;2023-04-28T02:10:51;101104.88;;;8.02;70.51
66887;BME280;67239;51.680;5.976;2023-04-28T02:13:20;101109.31;;;7.97;71.03
66887;BME280;67239;51.680;5.976;2023-04-28T02:15:47;101098.88;;;7.92;71.65
66887;BME280;67239;51.680;5.976;2023-04-28T02:18:14;101091.94;;;7.89;72.14
66887;BME280;67239;51.680;5.976;2023-04-28T02:20:41;101086.66;;;7.92;72.70
66887;BME280;67239;51.680;5.976;2023-04-28T02:23:09;101069.97;;;7.95;72.70
66887;BME280;67239;51.680;5.976;2023-04-28T02:25:36;101076.09;;;7.96;72.90
66887;BME280;67239;51.680;5.976;2023-04-28T02:28:03;101082.19;;;7.98;72.81
66887;BME280;67239;51.680;5.976;2023-04-28T02:30:33;101090.91;;;8.00;72.72
66887;BME280;67239;51.680;5.976;2023-04-28T02:33:00;101083.88;;;8.02;73.04
66887;BME280;67239;51.680;5.976;2023-04-28T02:35:27;101089.94;;;8.04;73.39
66887;BME280;67239;51.680;5.976;2023-04-28T02:37:54;101078.56;;;8.05;73.20
66887;BME280;67239;51.680;5.976;2023-04-28T02:40:21;101084.63;;;8.10;72.67
66887;BME280;67239;51.680;5.976;2023-04-28T02:42:48;101082.00;;;8.10;72.62
66887;BME280;67239;51.680;5.976;2023-04-28T02:45:15;101082.88;;;8.09;72.83
66887;BME280;67239;51.680;5.976;2023-04-28T02:47:42;101077.63;;;8.09;73.44
66887;BME280;67239;51.680;5.976;2023-04-28T02:50:09;101063.56;;;8.13;73.00
66887;BME280;67239;51.680;5.976;2023-04-28T02:52:37;101060.91;;;8.15;73.41
66887;BME280;67239;51.680;5.976;2023-04-28T02:55:04;101048.69;;;8.12;73.48
66887;BME280;67239;51.680;5.976;2023-04-28T02:57:32;101040.81;;;8.11;74.28
66887;BME280;67239;51.680;5.976;2023-04-28T02:59:59;101040.88;;;8.09;74.47
66887;BME280;67239;51.680;5.976;2023-04-28T03:02:31;101038.16;;;8.14;74.60
66887;BME280;67239;51.680;5.976;2023-04-28T03:04:58;101026.81;;;8.12;75.00
66887;BME280;67239;51.680;5.976;2023-04-28T03:07:25;101021.56;;;8.13;75.23
66887;BME280;67239;51.680;5.976;2023-04-28T03:09:52;101010.16;;;8.13;75.30
66887;BME280;67239;51.680;5.976;2023-04-28T03:12:19;101007.56;;;8.11;75.69
66887;BME280;67239;51.680;5.976;2023-04-28T03:14:47;100989.16;;;8.13;76.09
66887;BME280;67239;51.680;5.976;2023-04-28T03:17:15;100993.56;;;8.11;76.53
66887;BME280;67239;51.680;5.976;2023-04-28T03:19:42;100981.31;;;8.09;76.76
66887;BME280;67239;51.680;5.976;2023-04-28T03:22:09;100981.31;;;8.09;76.88
66887;BME280;67239;51.680;5.976;2023-04-28T03:24:36;100983.94;;;8.11;77.53
66887;BME280;67239;51.680;5.976;2023-04-28T03:27:03;100997.00;;;8.14;77.64
66887;BME280;67239;51.680;5.976;2023-04-28T03:29:31;100996.09;;;8.17;77.34
66887;BME280;67239;51.680;5.976;2023-04-28T03:31:58;100992.50;;;8.21;77.73
66887;BME280;67239;51.680;5.976;2023-04-28T03:34:26;101000.38;;;8.22;77.69
66887;BME280;67239;51.680;5.976;2023-04-28T03:36:53;101012.53;;;8.27;77.79
66887;BME280;67239;51.680;5.976;2023-04-28T03:39:26;101004.66;;;8.27;77.95
66887;BME280;67239;51.680;5.976;2023-04-28T03:41:53;101000.22;;;8.32;77.97
66887;BME280;67239;51.680;5.976;2023-04-28T03:44:39;100996.63;;;8.36;78.27
66887;BME280;67239;51.680;5.976;2023-04-28T03:47:07;100987.84;;;8.37;78.68
66887;BME280;67239;51.680;5.976;2023-04-28T03:49:35;100990.50;;;8.35;79.77
66887;BME280;67239;51.680;5.976;2023-04-28T03:52:02;100997.66;;;8.27;80.66
66887;BME280;67239;51.680;5.976;2023-04-28T03:54:30;100992.50;;;8.21;81.74
66887;BME280;67239;51.680;5.976;2023-04-28T03:56:58;100995.25;;;8.15;82.68
66887;BME280;67239;51.680;5.976;2023-04-28T03:59:26;100993.56;;;8.11;83.67
66887;BME280;67239;51.680;5.976;2023-04-28T04:01:53;100988.38;;;8.07;84.06
66887;BME280;67239;51.680;5.976;2023-04-28T04:04:20;100981.44;;;8.03;84.83
66887;BME280;67239;51.680;5.976;2023-04-28T04:06:48;100991.03;;;8.06;85.20
66887;BME280;67239;51.680;5.976;2023-04-28T04:09:15;100984.91;;;8.05;85.80
66887;BME280;67239;51.680;5.976;2023-04-28T04:11:42;100984.91;;;8.05;86.53
66887;BME280;67239;51.680;5.976;2023-04-28T04:14:09;100981.31;;;8.11;86.92
66887;BME280;67239;51.680;5.976;2023-04-28T04:16:36;100974.38;;;8.07;86.93
66887;BME280;67239;51.680;5.976;2023-04-28T04:19:04;100974.31;;;8.10;87.34
66887;BME280;67239;51.680;5.976;2023-04-28T04:21:52;100973.44;;;8.09;88.41
66887;BME280;67239;51.680;5.976;2023-04-28T04:24:19;100963.78;;;8.13;88.74
66887;BME280;67239;51.680;5.976;2023-04-28T04:26:47;100962.84;;;8.14;88.91
66887;BME280;67239;51.680;5.976;2023-04-28T04:29:46;100958.50;;;8.15;89.17
66887;BME280;67239;51.680;5.976;2023-04-28T04:32:14;100954.94;;;8.17;89.43
66887;BME280;67239;51.680;5.976;2023-04-28T04:34:41;100964.53;;;8.18;89.71
66887;BME280;67239;51.680;5.976;2023-04-28T04:37:10;100961.84;;;8.23;89.92
66887;BME280;67239;51.680;5.976;2023-04-28T04:39:44;100960.00;;;8.27;89.56
66887;BME280;67239;51.680;5.976;2023-04-28T04:42:11;100953.81;;;8.31;89.79
66887;BME280;67239;51.680;5.976;2023-04-28T04:45:11;100957.28;;;8.33;89.90
66887;BME280;67239;51.680;5.976;2023-04-28T04:47:39;100948.38;;;8.40;89.73
66887;BME280;67239;51.680;5.976;2023-04-28T04:50:07;100945.72;;;8.43;89.96
66887;BME280;67239;51.680;5.976;2023-04-28T04:52:38;100951.75;;;8.47;89.98
66887;BME280;67239;51.680;5.976;2023-04-28T04:55:06;100947.34;;;8.50;90.05
66887;BME280;67239;51.680;5.976;2023-04-28T04:57:33;100940.25;;;8.54;90.17
66887;BME280;67239;51.680;5.976;2023-04-28T05:00:08;100948.94;;;8.58;90.58
66887;BME280;67239;51.680;5.976;2023-04-28T05:02:36;100952.41;;;8.60;90.15
66887;BME280;67239;51.680;5.976;2023-04-28T05:05:05;100949.69;;;8.64;90.13
66887;BME280;67239;51.680;5.976;2023-04-28T05:07:51;100959.25;;;8.68;89.57
66887;BME280;67239;51.680;5.976;2023-04-28T05:10:20;100964.38;;;8.75;89.40
66887;BME280;67239;51.680;5.976;2023-04-28T05:12:47;100963.38;;;8.80;89.60
66887;BME280;67239;51.680;5.976;2023-04-28T05:15:17;100954.50;;;8.86;89.30
66887;BME280;67239;51.680;5.976;2023-04-28T05:17:58;100948.28;;;8.90;89.61
66887;BME280;67239;51.680;5.976;2023-04-28T05:20:27;100947.31;;;8.94;89.70
66887;BME280;67239;51.680;5.976;2023-04-28T05:22:54;100935.84;;;8.98;89.65
66887;BME280;67239;51.680;5.976;2023-04-28T05:25:22;100940.09;;;9.02;89.59
66887;BME280;67239;51.680;5.976;2023-04-28T05:27:49;100944.38;;;9.08;89.85
66887;BME280;67239;51.680;5.976;2023-04-28T05:30:16;100939.84;;;9.15;89.54
66887;BME280;67239;51.680;5.976;2023-04-28T05:32:44;100937.00;;;9.24;89.85
66887;BME280;67239;51.680;5.976;2023-04-28T05:35:11;100936.03;;;9.28;90.39
66887;BME280;67239;51.680;5.976;2023-04-28T05:37:39;100929.66;;;9.37;90.43
66887;BME280;67239;51.680;5.976;2023-04-28T05:40:09;100926.78;;;9.48;90.10
66887;BME280;67239;51.680;5.976;2023-04-28T05:42:36;100923.75;;;9.65;90.00
66887;BME280;67239;51.680;5.976;2023-04-28T05:45:05;100920.06;;;9.72;89.65
66887;BME280;67239;51.680;5.976;2023-04-28T05:47:32;100904.88;;;9.82;89.58
66887;BME280;67239;51.680;5.976;2023-04-28T05:50:00;100900.19;;;9.93;89.53
66887;BME280;67239;51.680;5.976;2023-04-28T05:52:27;100893.69;;;10.07;89.08
66887;BME280;67239;51.680;5.976;2023-04-28T05:54:55;100897.94;;;10.13;88.78
66887;BME280;67239;51.680;5.976;2023-04-28T05:57:22;100905.69;;;10.17;88.41
66887;BME280;67239;51.680;5.976;2023-04-28T05:59:49;100911.53;;;10.29;88.43
66887;BME280;67239;51.680;5.976;2023-04-28T06:02:16;100901.50;;;10.43;88.45
66887;BME280;67239;51.680;5.976;2023-04-28T06:04:46;100908.13;;;10.58;87.78
66887;BME280;67239;51.680;5.976;2023-04-28T06:07:14;100906.13;;;10.66;87.46
66887;BME280;67239;51.680;5.976;2023-04-28T06:09:41;100907.69;;;10.72;86.75
66887;BME280;67239;51.680;5.976;2023-04-28T06:12:08;100909.25;;;10.79;86.51
66887;BME280;67239;51.680;5.976;2023-04-28T06:14:35;100907.38;;;10.83;86.34
66887;BME280;67239;51.680;5.976;2023-04-28T06:17:03;100910.69;;;10.90;86.19
66887;BME280;67239;51.680;5.976;2023-04-28T06:19:30;100908.72;;;10.96;85.90
66887;BME280;67239;51.680;5.976;2023-04-28T06:21:57;100911.94;;;11.06;85.50
66887;BME280;67239;51.680;5.976;2023-04-28T06:24:25;100912.53;;;11.14;85.09
66887;BME280;67239;51.680;5.976;2023-04-28T06:26:54;100920.44;;;11.16;84.46
66887;BME280;67239;51.680;5.976;2023-04-28T06:29:22;100925.66;;;11.17;84.02
66887;BME280;67239;51.680;5.976;2023-04-28T06:31:50;100916.63;;;11.25;83.98
66887;BME280;67239;51.680;5.976;2023-04-28T06:34:18;100911.97;;;11.33;83.98
66887;BME280;67239;51.680;5.976;2023-04-28T06:36:45;100918.06;;;11.35;83.69
66887;BME280;67239;51.680;5.976;2023-04-28T06:39:12;100911.84;;;11.38;83.56
66887;BME280;67239;51.680;5.976;2023-04-28T06:41:39;100914.25;;;11.44;83.27
66887;BME280;67239;51.680;5.976;2023-04-28T06:44:08;100918.53;;;11.48;83.17
66887;BME280;67239;51.680;5.976;2023-04-28T06:46:37;100906.19;;;11.48;82.86
66887;BME280;67239;51.680;5.976;2023-04-28T06:49:04;100905.13;;;11.54;82.90
66887;BME280;67239;51.680;5.976;2023-04-28T06:51:31;100902.41;;;11.56;82.80
66887;BME280;67239;51.680;5.976;2023-04-28T06:54:00;100896.34;;;11.54;82.77
66887;BME280;67239;51.680;5.976;2023-04-28T06:56:27;100903.38;;;11.55;82.86
66887;BME280;67239;51.680;5.976;2023-04-28T06:58:55;100905.06;;;11.56;82.80
66887;BME280;67239;51.680;5.976;2023-04-28T07:01:25;100903.38;;;11.55;82.95
66887;BME280;67239;51.680;5.976;2023-04-28T07:03:53;100904.22;;;11.55;83.26
66887;BME280;67239;51.680;5.976;2023-04-28T07:06:20;100904.28;;;11.54;83.33
66887;BME280;67239;51.680;5.976;2023-04-28T07:08:47;100904.28;;;11.54;83.64
66887;BME280;67239;51.680;5.976;2023-04-28T07:11:14;100898.13;;;11.53;83.84
66887;BME280;67239;51.680;5.976;2023-04-28T07:13:42;100897.94;;;11.59;83.94
66887;BME280;67239;51.680;5.976;2023-04-28T07:16:12;100902.00;;;11.68;83.92
66887;BME280;67239;51.680;5.976;2023-04-28T07:18:41;100892.84;;;11.80;84.10
66887;BME280;67239;51.680;5.976;2023-04-28T07:21:08;100888.81;;;11.93;83.65
66887;BME280;67239;51.680;5.976;2023-04-28T07:23:39;100893.72;;;12.06;83.63
66887;BME280;67239;51.680;5.976;2023-04-28T07:26:15;100895.09;;;12.16;83.08
66887;BME280;67239;51.680;5.976;2023-04-28T07:28:46;100892.06;;;12.27;82.79
66887;BME280;67239;51.680;5.976;2023-04-28T07:31:16;100902.28;;;12.36;82.69
66887;BME280;67239;51.680;5.976;2023-04-28T07:33:44;100896.56;;;12.49;82.71
66887;BME280;67239;51.680;5.976;2023-04-28T07:36:14;100901.28;;;12.64;82.49
66887;BME280;67239;51.680;5.976;2023-04-28T07:38:42;100899.22;;;12.72;82.16
66887;BME280;67239;51.680;5.976;2023-04-28T07:41:10;100896.38;;;12.77;82.00
66887;BME280;67239;51.680;5.976;2023-04-28T07:43:39;100892.81;;;12.78;81.93
66887;BME280;67239;51.680;5.976;2023-04-28T07:46:07;100886.47;;;12.82;81.91
66887;BME280;67239;51.680;5.976;2023-04-28T07:48:34;100892.03;;;12.98;81.95
66887;BME280;67239;51.680;5.976;2023-04-28T07:51:01;100899.44;;;13.12;81.53
66887;BME280;67239;51.680;5.976;2023-04-28T07:53:28;100890.25;;;13.21;81.48
66887;BME280;67239;51.680;5.976;2023-04-28T07:55:56;100883.91;;;13.25;80.76
66887;BME280;67239;51.680;5.976;2023-04-28T07:58:23;100887.19;;;13.32;80.39
66887;BME280;67239;51.680;5.976;2023-04-28T08:00:50;100882.53;;;13.37;79.87
66887;BME280;67239;51.680;5.976;2023-04-28T08:03:17;100883.31;;;13.41;79.71
66887;BME280;67239;51.680;5.976;2023-04-28T08:05:44;100890.09;;;13.48;79.92
66887;BME280;67239;51.680;5.976;2023-04-28T08:08:12;100875.56;;;13.57;79.97
66887;BME280;67239;51.680;5.976;2023-04-28T08:10:39;100879.47;;;13.69;79.18
66887;BME280;67239;51.680;5.976;2023-04-28T08:13:07;100871.88;;;13.81;79.59
66887;BME280;67239;51.680;5.976;2023-04-28T08:15:34;100869.47;;;13.96;78.96
66887;BME280;67239;51.680;5.976;2023-04-28T08:18:02;100873.03;;;14.16;78.63
66887;BME280;67239;51.680;5.976;2023-04-28T08:20:29;100864.63;;;14.45;78.23
66887;BME280;67239;51.680;5.976;2023-04-28T08:22:58;100869.44;;;14.75;77.17
66887;BME280;67239;51.680;5.976;2023-04-28T08:25:25;100873.69;;;14.99;76.31
66887;BME280;67239;51.680;5.976;2023-04-28T08:27:52;100863.41;;;15.10;75.58
66887;BME280;67239;51.680;5.976;2023-04-28T08:30:23;100874.09;;;15.26;74.97
66887;BME280;67239;51.680;5.976;2023-04-28T08:32:50;100879.69;;;15.39;75.24
66887;BME280;67239;51.680;5.976;2023-04-28T08:35:17;100863.81;;;15.37;74.50
66887;BME280;67239;51.680;5.976;2023-04-28T08:37:45;100877.50;;;15.30;75.47
66887;BME280;67239;51.680;5.976;2023-04-28T08:40:14;100880.38;;;15.25;75.95
66887;BME280;67239;51.680;5.976;2023-04-28T08:42:43;100884.41;;;15.15;75.80
66887;BME280;67239;51.680;5.976;2023-04-28T08:45:13;100883.75;;;15.10;76.23
66887;BME280;67239;51.680;5.976;2023-04-28T08:47:42;100888.06;;;15.12;76.39
66887;BME280;67239;51.680;5.976;2023-04-28T08:50:13;100884.56;;;15.12;76.93
66887;BME280;67239;51.680;5.976;2023-04-28T08:52:42;100890.31;;;15.02;77.39
66887;BME280;67239;51.680;5.976;2023-04-28T08:55:11;100887.72;;;15.01;77.88
66887;BME280;67239;51.680;5.976;2023-04-28T08:57:49;100885.72;;;15.06;77.73
66887;BME280;67239;51.680;5.976;2023-04-28T09:00:19;100882.69;;;15.14;78.06
66887;BME280;67239;51.680;5.976;2023-04-28T09:02:47;100881.34;;;15.22;78.74
66887;BME280;67239;51.680;5.976;2023-04-28T09:05:14;100880.28;;;15.27;78.15
66887;BME280;67239;51.680;5.976;2023-04-28T09:07:44;100884.00;;;15.22;78.30
66887;BME280;67239;51.680;5.976;2023-04-28T09:10:21;100883.03;;;15.25;78.00
66887;BME280;67239;51.680;5.976;2023-04-28T09:12:52;100883.50;;;15.33;77.71
66887;BME280;67239;51.680;5.976;2023-04-28T09:15:37;100875.16;;;15.41;77.55
66887;BME280;67239;51.680;5.976;2023-04-28T09:18:07;100880.38;;;15.43;77.50
66887;BME280;67239;51.680;5.976;2023-04-28T09:20:35;100872.41;;;15.43;77.53
66887;BME280;67239;51.680;5.976;2023-04-28T09:23:20;100874.19;;;15.42;77.37
66887;BME280;67239;51.680;5.976;2023-04-28T09:28:30;100878.81;;;15.38;77.73
66887;BME280;67239;51.680;5.976;2023-04-28T09:31:00;100872.03;;;15.50;78.00
66887;BME280;67239;51.680;5.976;2023-04-28T09:33:27;100862.41;;;15.65;78.30
66887;BME280;67239;51.680;5.976;2023-04-28T09:35:55;100866.81;;;15.84;78.24
66887;BME280;67239;51.680;5.976;2023-04-28T09:38:22;100863.63;;;16.11;77.87
66887;BME280;67239;51.680;5.976;2023-04-28T09:41:00;100868.22;;;16.25;77.64
66887;BME280;67239;51.680;5.976;2023-04-28T09:43:32;100870.63;;;16.29;77.31
66887;BME280;67239;51.680;5.976;2023-04-28T09:46:04;100878.06;;;16.23;76.75
66887;BME280;67239;51.680;5.976;2023-04-28T09:48:36;100874.34;;;16.09;76.57
66887;BME280;67239;51.680;5.976;2023-04-28T09:51:06;100876.72;;;15.98;76.64
66887;BME280;67239;51.680;5.976;2023-04-28T09:53:33;100873.75;;;15.87;77.02
66887;BME280;67239;51.680;5.976;2023-04-28T09:56:02;100868.09;;;15.75;77.27
66887;BME280;67239;51.680;5.976;2023-04-28T09:58:33;100869.38;;;15.68;77.47
66887;BME280;67239;51.680;5.976;2023-04-28T10:01:08;100862.25;;;15.68;77.61
66887;BME280;67239;51.680;5.976;2023-04-28T10:03:40;100855.22;;;15.67;77.84
66887;BME280;67239;51.680;5.976;2023-04-28T10:06:08;100856.69;;;15.73;78.71
66887;BME280;67239;51.680;5.976;2023-04-28T10:08:36;100860.13;;;15.75;79.46
66887;BME280;67239;51.680;5.976;2023-04-28T10:11:03;100862.88;;;15.74;79.52
66887;BME280;67239;51.680;5.976;2023-04-28T10:13:33;100857.97;;;15.66;79.55
66887;BME280;67239;51.680;5.976;2023-04-28T10:16:00;100868.34;;;15.53;79.51
66887;BME280;67239;51.680;5.976;2023-04-28T10:18:30;100861.66;;;15.46;79.69
66887;BME280;67239;51.680;5.976;2023-04-28T10:21:02;100868.13;;;15.40;79.97
66887;BME280;67239;51.680;5.976;2023-04-28T10:29:34;100862.31;;;15.32;80.60
66887;BME280;67239;51.680;5.976;2023-04-28T10:32:14;100873.94;;;15.29;80.65
66887;BME280;67239;51.680;5.976;2023-04-28T10:34:41;100874.03;;;15.28;81.79
66887;BME280;67239;51.680;5.976;2023-04-28T10:37:08;100862.47;;;15.29;81.78
66887;BME280;67239;51.680;5.976;2023-04-28T10:39:36;100871.94;;;15.34;81.45
66887;BME280;67239;51.680;5.976;2023-04-28T10:42:07;100869.53;;;15.47;81.53
66887;BME280;67239;51.680;5.976;2023-04-28T10:56:30;100868.13;;;15.93;81.06
66887;BME280;67239;51.680;5.976;2023-04-28T10:58:58;100862.88;;;15.91;80.93
66887;BME280;67239;51.680;5.976;2023-04-28T11:01:27;100870.78;;;15.93;81.22
66887;BME280;67239;51.680;5.976;2023-04-28T11:03:59;100871.75;;;15.92;81.43
66887;BME280;67239;51.680;5.976;2023-04-28T11:06:41;100866.66;;;15.87;81.48
66887;BME280;67239;51.680;5.976;2023-04-28T11:14:33;100861.34;;;15.87;81.63
66887;BME280;67239;51.680;5.976;2023-04-28T11:17:07;100865.06;;;15.83;81.36
66887;BME280;67239;51.680;5.976;2023-04-28T11:19:42;100865.69;;;15.71;81.77
66887;BME280;67239;51.680;5.976;2023-04-28T11:22:16;100869.59;;;15.63;82.00
66887;BME280;67239;51.680;5.976;2023-04-28T11:24:55;100867.19;;;15.59;82.01
66887;BME280;67239;51.680;5.976;2023-04-28T11:27:27;100866.94;;;15.63;82.33
66887;BME280;67239;51.680;5.976;2023-04-28T11:29:57;100865.69;;;15.71;82.27
66887;BME280;67239;51.680;5.976;2023-04-28T11:32:33;100858.34;;;15.76;81.79
66887;BME280;67239;51.680;5.976;2023-04-28T11:35:01;100863.03;;;15.71;81.71
66887;BME280;67239;51.680;5.976;2023-04-28T11:37:30;100862.19;;;15.70;82.07
66887;BME280;67239;51.680;5.976;2023-04-28T11:39:57;100853.63;;;15.81;81.53
66887;BME280;67239;51.680;5.976;2023-04-28T11:42:24;100858.72;;;16.03;81.57
66887;BME280;67239;51.680;5.976;2023-04-28T11:44:53;100851.41;;;16.24;80.98
66887;BME280;67239;51.680;5.976;2023-04-28T11:47:29;100859.47;;;16.39;80.38
66887;BME280;67239;51.680;5.976;2023-04-28T11:49:58;100845.63;;;16.66;79.65
66887;BME280;67239;51.680;5.976;2023-04-28T11:52:25;100851.69;;;17.00;79.61
66887;BME280;67239;51.680;5.976;2023-04-28T11:54:54;100841.78;;;17.34;78.65
66887;BME280;67239;51.680;5.976;2023-04-28T11:57:24;100841.00;;;17.62;77.60
66887;BME280;67239;51.680;5.976;2023-04-28T11:59:52;100849.78;;;17.79;75.04
66887;BME280;67239;51.680;5.976;2023-04-28T12:02:26;100841.56;;;17.67;74.67
66887;BME280;67239;51.680;5.976;2023-04-28T12:04:55;100852.09;;;17.54;74.89
66887;BME280;67239;51.680;5.976;2023-04-28T12:07:40;100852.66;;;17.45;74.44
66887;BME280;67239;51.680;5.976;2023-04-28T12:12:38;100846.31;;;17.32;75.28
66887;BME280;67239;51.680;5.976;2023-04-28T12:15:17;100852.53;;;17.32;75.33
66887;BME280;67239;51.680;5.976;2023-04-28T12:18:09;100858.28;;;17.25;75.10
66887;BME280;67239;51.680;5.976;2023-04-28T12:20:42;100848.84;;;17.19;74.92
66887;BME280;67239;51.680;5.976;2023-04-28T12:23:09;100850.84;;;17.15;75.10
66887;BME280;67239;51.680;5.976;2023-04-28T12:25:43;100847.81;;;17.21;75.35
66887;BME280;67239;51.680;5.976;2023-04-28T12:28:11;100859.13;;;17.25;75.63
66887;BME280;67239;51.680;5.976;2023-04-28T12:30:38;100851.41;;;17.20;74.37
66887;BME280;67239;51.680;5.976;2023-04-28T12:33:22;100856.88;;;17.03;75.04
66887;BME280;67239;51.680;5.976;2023-04-28T12:35:50;100858.81;;;16.83;75.64
66887;BME280;67239;51.680;5.976;2023-04-28T12:38:20;100851.53;;;16.71;76.06
66887;BME280;67239;51.680;5.976;2023-04-28T12:40:47;100852.97;;;16.60;76.54
66887;BME280;67239;51.680;5.976;2023-04-28T12:43:15;100863.44;;;16.48;76.68
66887;BME280;67239;51.680;5.976;2023-04-28T12:45:42;100860.44;;;16.38;77.96
66887;BME280;67239;51.680;5.976;2023-04-28T12:48:09;100865.47;;;16.26;79.02
66887;BME280;67239;51.680;5.976;2023-04-28T12:50:36;100867.16;;;16.11;80.05
66887;BME280;67239;51.680;5.976;2023-04-28T12:53:03;100867.88;;;15.97;79.98
66887;BME280;67239;51.680;5.976;2023-04-28T12:55:30;100868.56;;;15.83;82.04
66887;BME280;67239;51.680;5.976;2023-04-28T12:57:58;100870.63;;;15.61;83.35
66887;BME280;67239;51.680;5.976;2023-04-28T13:00:25;100871.53;;;15.42;84.55
66887;BME280;67239;51.680;5.976;2023-04-28T13:02:52;100872.47;;;15.24;86.28
66887;BME280;67239;51.680;5.976;2023-04-28T13:05:19;100877.75;;;15.06;86.75
66887;BME280;67239;51.680;5.976;2023-04-28T13:07:46;100879.03;;;14.97;87.55
66887;BME280;67239;51.680;5.976;2023-04-28T13:10:15;100874.88;;;14.91;87.50
66887;BME280;67239;51.680;5.976;2023-04-28T13:12:43;100877.63;;;14.90;87.31
66887;BME280;67239;51.680;5.976;2023-04-28T13:15:10;100866.06;;;14.91;88.36
66887;BME280;67239;51.680;5.976;2023-04-28T13:17:38;100873.47;;;14.84;88.04
66887;BME280;67239;51.680;5.976;2023-04-28T13:20:05;100871.03;;;14.80;89.56
66887;BME280;67239;51.680;5.976;2023-04-28T13:22:33;100874.69;;;14.77;89.71
66887;BME280;67239;51.680;5.976;2023-04-28T13:25:00;100877.41;;;14.75;89.92
66887;BME280;67239;51.680;5.976;2023-04-28T13:27:27;100874.03;;;14.72;90.35
66887;BME280;67239;51.680;5.976;2023-04-28T13:29:56;100883.09;;;14.68;91.07
66887;BME280;67239;51.680;5.976;2023-04-28T13:32:26;100879.91;;;14.59;92.18
66887;BME280;67239;51.680;5.976;2023-04-28T13:34:53;100883.91;;;14.49;92.72